Time;durP1;ratioP1;P1;durP2;ratioP2;P2;SDS_P1;SDS_P2;PMS_P1;PMS_P2;Temp;Humidity;BMP_temperature;BMP_pressure;BME280_temperature;BME280_humidity;BME280_pressure;Samples;Min_cycle;Max_cycle;Signal;HPM_P1;HPM_P2
2024/03/05 00:02:25;;;;;;;103.80;50.15;;;8.00;99.90;;;;;;5113667;28;20223;-62
2024/03/05 00:04:52;;;;;;;125.03;53.67;;;8.00;99.90;;;;;;5113527;28;20200;-63
2024/03/05 00:07:19;;;;;;;112.20;52.90;;;8.00;99.90;;;;;;5113275;28;20688;-62
2024/03/05 00:09:45;;;;;;;108.68;50.75;;;8.00;99.90;;;;;;5113434;28;20298;-64
2024/03/05 00:12:12;;;;;;;117.50;51.00;;;8.00;99.90;;;;;;5113511;28;20245;-63
2024/03/05 00:14:41;;;;;;;117.95;50.58;;;8.00;99.90;;;;;;5113521;28;20205;-64
2024/03/05 00:17:09;;;;;;;116.10;51.33;;;8.00;99.90;;;;;;5114718;28;20206;-62
2024/03/05 00:19:36;;;;;;;126.57;53.85;;;8.00;99.90;;;;;;5115129;28;20200;-63
2024/03/05 00:22:03;;;;;;;105.03;46.55;;;8.00;99.90;;;;;;5114780;28;20728;-63
2024/03/05 00:24:29;;;;;;;107.85;48.33;;;8.10;99.90;;;;;;5114447;28;20234;-63
2024/03/05 00:26:56;;;;;;;119.50;53.40;;;8.10;99.90;;;;;;5113686;28;20562;-63
2024/03/05 00:29:23;;;;;;;114.32;51.58;;;8.00;99.90;;;;;;5116474;28;20248;-62
2024/03/05 00:31:51;;;;;;;116.20;50.25;;;8.10;99.90;;;;;;5117161;28;20242;-63
2024/03/05 00:34:18;;;;;;;108.55;52.03;;;8.00;99.90;;;;;;5117588;28;20211;-63
2024/03/05 00:36:45;;;;;;;121.47;51.63;;;8.00;99.90;;;;;;5117481;28;20298;-63
2024/03/05 00:39:11;;;;;;;113.55;49.10;;;8.00;99.90;;;;;;5117699;28;20239;-62
2024/03/05 00:41:39;;;;;;;124.32;53.75;;;8.00;99.90;;;;;;5117274;28;20241;-63
2024/03/05 00:44:06;;;;;;;120.22;51.85;;;8.00;99.90;;;;;;5117295;28;20207;-62
2024/03/05 00:46:33;;;;;;;117.05;54.13;;;8.00;99.90;;;;;;5117331;28;20226;-63
2024/03/05 00:49:00;;;;;;;118.28;52.50;;;8.00;99.90;;;;;;5117089;28;20192;-62
2024/03/05 00:51:26;;;;;;;116.05;52.40;;;8.00;99.90;;;;;;5117642;28;20220;-63
2024/03/05 00:53:53;;;;;;;114.13;52.00;;;8.10;99.90;;;;;;5117174;28;20207;-62
2024/03/05 00:56:20;;;;;;;111.75;50.83;;;8.10;99.90;;;;;;5117002;28;20214;-62
2024/03/05 00:58:47;;;;;;;123.28;52.20;;;8.00;99.90;;;;;;5116614;28;20226;-63
2024/03/05 01:01:15;;;;;;;128.75;57.20;;;8.00;99.90;;;;;;5117379;28;20210;-62
2024/03/05 01:03:43;;;;;;;123.55;53.70;;;8.00;99.90;;;;;;5117401;28;20203;-63
2024/03/05 01:06:11;;;;;;;127.15;54.45;;;8.00;99.90;;;;;;5117773;28;20249;-61
2024/03/05 01:08:38;;;;;;;125.28;52.47;;;8.00;99.90;;;;;;5117537;28;20564;-63
2024/03/05 01:11:04;;;;;;;119.35;55.40;;;8.00;99.90;;;;;;5117204;28;20199;-62
2024/03/05 01:13:31;;;;;;;130.55;54.85;;;8.00;99.90;;;;;;5117185;28;20209;-61
2024/03/05 01:15:58;;;;;;;113.03;51.65;;;8.10;99.90;;;;;;5117567;28;20203;-63
2024/03/05 01:18:24;;;;;;;122.72;54.08;;;8.10;99.90;;;;;;5117676;28;20223;-63
2024/03/05 01:20:53;;;;;;;123.38;52.83;;;8.10;99.90;;;;;;5117188;28;20199;-62
2024/03/05 01:23:21;;;;;;;118.53;52.67;;;8.10;99.90;;;;;;5117009;28;20228;-63
2024/03/05 01:25:47;;;;;;;129.98;55.60;;;8.10;99.90;;;;;;5116780;28;20225;-59
2024/03/05 01:28:15;;;;;;;131.57;55.97;;;8.10;99.90;;;;;;5116684;28;20210;-63
2024/03/05 01:30:43;;;;;;;115.43;52.03;;;8.10;99.90;;;;;;5116901;28;20286;-63
2024/03/05 01:33:19;;;;;;;129.00;54.60;;;8.10;99.90;;;;;;5116384;28;20242;-62
2024/03/05 01:35:47;;;;;;;116.18;50.80;;;8.20;99.90;;;;;;5116820;28;20186;-63
2024/03/05 01:38:14;;;;;;;116.78;51.35;;;8.20;99.90;;;;;;5116114;28;20251;-63
2024/03/05 01:40:42;;;;;;;118.15;52.22;;;8.20;99.90;;;;;;5115335;28;20203;-62
2024/03/05 01:43:10;;;;;;;110.03;50.67;;;8.20;99.90;;;;;;5116035;28;20220;-62
2024/03/05 01:45:36;;;;;;;116.90;50.67;;;8.20;99.90;;;;;;5115981;28;20210;-63
2024/03/05 01:48:04;;;;;;;115.05;51.20;;;8.20;99.90;;;;;;5116748;28;20601;-62
2024/03/05 01:50:35;;;;;;;117.38;52.45;;;8.20;99.90;;;;;;5116150;28;20299;-63
2024/03/05 01:53:02;;;;;;;106.15;51.40;;;8.20;99.90;;;;;;5115998;28;20682;-63
2024/03/05 01:55:29;;;;;;;120.40;53.78;;;8.20;99.90;;;;;;5115941;28;20688;-62
2024/03/05 01:57:58;;;;;;;127.47;55.65;;;8.20;99.90;;;;;;5115740;28;20222;-63
2024/03/05 02:00:24;;;;;;;111.85;52.20;;;8.20;99.90;;;;;;5115637;28;20664;-63
2024/03/05 02:02:52;;;;;;;120.68;52.40;;;8.20;99.90;;;;;;5116954;28;20255;-62
2024/03/05 02:05:19;;;;;;;118.00;50.30;;;8.30;99.90;;;;;;5115487;28;20200;-63
2024/03/05 02:07:47;;;;;;;132.95;52.30;;;8.30;99.90;;;;;;5115669;28;20203;-63
2024/03/05 02:10:14;;;;;;;126.57;55.50;;;8.30;99.90;;;;;;5115340;28;20613;-63
2024/03/05 02:12:41;;;;;;;119.10;50.33;;;8.20;99.90;;;;;;5115743;28;20237;-62
2024/03/05 02:15:11;;;;;;;136.35;53.40;;;8.20;99.90;;;;;;5115489;28;20617;-63
2024/03/05 02:17:38;;;;;;;115.20;52.20;;;8.20;99.90;;;;;;5115628;28;20199;-63
2024/03/05 02:20:09;;;;;;;94.93;50.15;;;8.20;99.90;;;;;;5115751;28;20211;-63
2024/03/05 02:22:37;;;;;;;119.47;50.05;;;8.20;99.90;;;;;;5116092;28;20600;-62
2024/03/05 02:25:05;;;;;;;112.07;52.83;;;8.30;99.90;;;;;;5115699;28;20207;-63
2024/03/05 02:27:32;;;;;;;105.93;49.97;;;8.30;99.90;;;;;;5115937;28;20282;-62
2024/03/05 02:29:59;;;;;;;111.45;50.85;;;8.30;99.90;;;;;;5115334;28;20199;-63
2024/03/05 02:32:27;;;;;;;103.00;50.85;;;8.30;99.90;;;;;;5115518;28;20232;-63
2024/03/05 02:34:54;;;;;;;97.72;48.58;;;8.30;99.90;;;;;;5115527;28;20196;-62
2024/03/05 02:37:21;;;;;;;104.82;49.30;;;8.20;99.90;;;;;;5115156;28;20227;-63
2024/03/05 02:39:50;;;;;;;94.68;50.88;;;8.20;99.90;;;;;;5114841;28;20273;-62
2024/03/05 02:42:16;;;;;;;95.88;49.53;;;8.20;99.90;;;;;;5115226;28;20712;-63
2024/03/05 02:44:43;;;;;;;93.13;48.08;;;8.20;99.90;;;;;;5114803;28;20554;-63
2024/03/05 02:47:11;;;;;;;92.82;47.28;;;8.20;99.90;;;;;;5115532;28;20207;-63
2024/03/05 02:49:37;;;;;;;98.88;47.42;;;8.20;99.90;;;;;;5115348;28;20196;-62
2024/03/05 02:52:04;;;;;;;95.93;47.60;;;8.20;99.90;;;;;;5113837;28;20233;-62
2024/03/05 02:54:31;;;;;;;97.78;49.03;;;8.20;99.90;;;;;;5116388;28;20222;-62
2024/03/05 02:56:59;;;;;;;93.40;46.92;;;8.20;99.90;;;;;;5116204;28;20202;-62
2024/03/05 02:59:26;;;;;;;94.05;46.85;;;8.20;99.90;;;;;;5115679;28;20223;-63
2024/03/05 03:01:53;;;;;;;83.05;47.55;;;8.20;99.90;;;;;;5115327;28;20226;-63
2024/03/05 03:04:19;;;;;;;95.55;45.88;;;8.20;99.90;;;;;;5114915;28;20207;-63
2024/03/05 03:06:46;;;;;;;89.32;47.58;;;8.20;99.90;;;;;;5114476;28;20223;-63
2024/03/05 03:09:13;;;;;;;74.57;43.90;;;8.20;99.90;;;;;;5114495;28;20200;-62
2024/03/05 03:11:41;;;;;;;84.07;43.90;;;8.20;99.90;;;;;;5114033;28;20736;-62
2024/03/05 03:14:11;;;;;;;76.43;43.40;;;8.20;99.90;;;;;;5114658;28;20204;-63
2024/03/05 03:16:39;;;;;;;85.43;46.13;;;8.10;99.90;;;;;;5114515;28;20188;-62
2024/03/05 03:19:06;;;;;;;71.15;42.88;;;8.10;99.90;;;;;;5115495;28;20273;-63
2024/03/05 03:21:32;;;;;;;77.20;43.40;;;8.10;99.90;;;;;;5114418;28;20225;-63
2024/03/05 03:23:59;;;;;;;67.60;42.65;;;8.10;99.90;;;;;;5114105;28;20207;-62
2024/03/05 03:26:26;;;;;;;75.97;42.92;;;8.10;99.90;;;;;;5114136;28;20665;-63
2024/03/05 03:28:54;;;;;;;73.43;42.40;;;8.10;99.90;;;;;;5114764;28;20212;-63
2024/03/05 03:31:22;;;;;;;65.40;38.85;;;8.00;99.90;;;;;;5114576;28;20235;-63
2024/03/05 03:33:49;;;;;;;62.72;38.97;;;8.00;99.90;;;;;;5114125;28;20264;-63
2024/03/05 03:36:23;;;;;;;71.30;41.95;;;8.00;99.90;;;;;;5114499;28;20226;-63
2024/03/05 03:38:51;;;;;;;60.58;38.30;;;8.00;99.90;;;;;;5114270;28;20244;-63
2024/03/05 03:41:19;;;;;;;58.70;38.70;;;8.00;99.90;;;;;;5114260;28;20207;-63
2024/03/05 03:43:47;;;;;;;62.67;37.38;;;8.00;99.90;;;;;;5114433;28;20627;-62
2024/03/05 03:46:13;;;;;;;61.17;38.53;;;8.00;99.90;;;;;;5114889;28;20200;-62
2024/03/05 03:48:42;;;;;;;67.20;37.72;;;7.90;99.90;;;;;;5116739;28;20200;-63
2024/03/05 03:51:09;;;;;;;54.67;36.42;;;7.90;99.90;;;;;;5115291;28;20210;-63
2024/03/05 03:53:37;;;;;;;66.00;36.70;;;7.90;99.90;;;;;;5114699;28;20259;-62
2024/03/05 03:56:04;;;;;;;64.90;40.53;;;7.90;99.90;;;;;;5114216;28;20203;-62
2024/03/05 03:58:32;;;;;;;67.50;38.67;;;7.90;99.90;;;;;;5113946;28;20196;-62
2024/03/05 04:00:59;;;;;;;81.65;40.13;;;7.90;99.90;;;;;;5113430;28;20664;-64
2024/03/05 04:03:25;;;;;;;63.10;39.20;;;7.90;99.90;;;;;;5113555;28;20680;-63
2024/03/05 04:05:54;;;;;;;67.78;40.83;;;7.80;99.90;;;;;;5112962;28;20636;-62
2024/03/05 04:08:21;;;;;;;69.63;40.00;;;7.90;99.90;;;;;;5113685;28;20214;-62
2024/03/05 04:13:19;;;;;;;75.05;42.50;;;7.80;99.90;;;;;;5155455;27;20547;-63
2024/03/05 04:15:46;;;;;;;76.47;40.92;;;7.80;99.90;;;;;;5157727;27;20194;-63
2024/03/05 04:18:13;;;;;;;67.80;42.20;;;7.80;99.90;;;;;;5156042;27;20202;-64
2024/03/05 04:20:40;;;;;;;73.10;42.83;;;7.80;99.90;;;;;;5154495;27;20208;-64
2024/03/05 04:23:10;;;;;;;68.60;40.03;;;7.80;99.90;;;;;;5156466;27;20214;-63
2024/03/05 04:25:39;;;;;;;56.92;36.13;;;7.80;99.90;;;;;;5157310;27;20198;-62
2024/03/05 04:28:10;;;;;;;59.53;38.35;;;7.80;99.90;;;;;;5158344;27;20293;-63
2024/03/05 04:30:39;;;;;;;57.03;36.05;;;7.70;99.90;;;;;;5156081;27;20210;-63
2024/03/05 04:33:09;;;;;;;49.08;33.15;;;7.70;99.90;;;;;;5153508;27;20229;-62
2024/03/05 04:35:36;;;;;;;47.53;31.42;;;7.60;99.90;;;;;;5154562;27;20245;-63
2024/03/05 04:38:05;;;;;;;46.47;30.52;;;7.60;99.90;;;;;;5153185;27;20205;-63
2024/03/05 04:40:33;;;;;;;49.80;33.17;;;7.50;99.90;;;;;;5152582;27;20225;-63
2024/03/05 04:43:00;;;;;;;47.97;32.28;;;7.50;99.90;;;;;;5152555;27;20579;-64
2024/03/05 04:45:27;;;;;;;51.25;33.00;;;7.50;99.90;;;;;;5153349;27;20221;-64
2024/03/05 04:47:55;;;;;;;52.58;32.15;;;7.50;99.90;;;;;;5152850;27;20233;-63
2024/03/05 04:50:22;;;;;;;46.40;31.15;;;7.50;99.90;;;;;;5151780;27;20572;-63
2024/03/05 04:52:49;;;;;;;44.35;29.35;;;7.50;99.90;;;;;;5151645;27;20225;-63
2024/03/05 04:55:16;;;;;;;44.47;29.77;;;7.40;99.90;;;;;;5151806;27;20254;-62
2024/03/05 04:57:43;;;;;;;47.10;30.38;;;7.40;99.90;;;;;;5152031;27;20251;-63
2024/03/05 05:00:19;;;;;;;46.33;28.50;;;7.40;99.90;;;;;;5151827;27;20604;-62
2024/03/05 05:02:46;;;;;;;44.17;28.85;;;7.40;99.90;;;;;;5152091;27;20213;-64
2024/03/05 05:05:15;;;;;;;43.58;27.67;;;7.40;99.90;;;;;;5151598;27;20611;-63
2024/03/05 05:07:43;;;;;;;43.65;30.73;;;7.30;99.90;;;;;;5151263;27;20199;-62
2024/03/05 05:10:10;;;;;;;41.05;28.80;;;7.30;99.90;;;;;;5151405;27;20202;-63
2024/03/05 05:12:39;;;;;;;40.70;29.00;;;7.30;99.90;;;;;;5151534;27;20662;-62
2024/03/05 05:15:06;;;;;;;37.75;27.20;;;7.20;99.90;;;;;;5151681;27;20624;-61
2024/03/05 05:17:34;;;;;;;38.10;27.05;;;7.20;99.90;;;;;;5151630;27;20210;-62
2024/03/05 05:20:01;;;;;;;39.85;26.45;;;7.10;99.90;;;;;;5152546;27;20198;-62
2024/03/05 05:22:29;;;;;;;39.22;26.65;;;7.10;99.90;;;;;;5151042;27;20217;-63
2024/03/05 05:24:55;;;;;;;37.67;26.88;;;7.10;99.90;;;;;;5137666;27;20206;-63
2024/03/05 05:27:22;;;;;;;40.53;26.77;;;7.00;99.90;;;;;;5137591;27;20206;-64
2024/03/05 05:29:49;;;;;;;42.65;26.88;;;7.10;99.90;;;;;;5139333;27;20221;-63
2024/03/05 05:32:16;;;;;;;45.60;28.02;;;7.10;99.90;;;;;;5142518;27;20214;-62
2024/03/05 05:34:43;;;;;;;38.72;26.50;;;7.10;99.90;;;;;;5144406;27;20206;-63
2024/03/05 05:37:10;;;;;;;34.80;25.05;;;7.10;99.90;;;;;;5141658;27;20258;-63
2024/03/05 05:39:38;;;;;;;37.65;26.92;;;7.10;99.90;;;;;;5139590;27;20199;-62
2024/03/05 05:42:07;;;;;;;36.05;24.20;;;7.00;99.90;;;;;;5138397;27;20240;-62
2024/03/05 05:44:34;;;;;;;33.40;24.17;;;6.90;99.90;;;;;;5138379;27;20545;-62
2024/03/05 05:47:03;;;;;;;31.92;23.45;;;6.90;99.90;;;;;;5137273;27;20229;-61
2024/03/05 05:49:32;;;;;;;34.25;22.67;;;6.80;99.90;;;;;;5138037;27;20202;-62
2024/03/05 05:51:59;;;;;;;28.55;22.00;;;6.80;99.90;;;;;;5137411;27;20642;-62
2024/03/05 05:54:25;;;;;;;36.80;26.40;;;6.70;99.90;;;;;;5137269;27;20195;-63
2024/03/05 05:56:55;;;;;;;35.05;23.45;;;6.70;99.90;;;;;;5137969;27;20203;-63
2024/03/05 05:59:22;;;;;;;35.92;24.17;;;6.70;99.90;;;;;;5137919;27;20550;-61
2024/03/05 06:01:48;;;;;;;34.33;23.27;;;6.70;99.90;;;;;;5138140;27;20215;-62
2024/03/05 06:04:15;;;;;;;33.42;23.45;;;6.70;99.90;;;;;;5138284;27;20203;-62
2024/03/05 06:06:43;;;;;;;31.00;23.85;;;6.60;99.90;;;;;;5137966;27;20203;-62
2024/03/05 06:09:09;;;;;;;35.45;23.48;;;6.60;99.90;;;;;;5137409;27;20198;-63
2024/03/05 06:11:37;;;;;;;30.85;22.95;;;6.50;99.90;;;;;;5137470;27;20234;-63
2024/03/05 06:14:06;;;;;;;30.70;23.50;;;6.50;99.90;;;;;;5137910;27;20199;-62
2024/03/05 06:16:33;;;;;;;31.77;22.83;;;6.50;99.90;;;;;;5137112;27;20227;-62
2024/03/05 06:18:59;;;;;;;37.78;23.27;;;6.50;99.90;;;;;;5136866;27;20206;-63
2024/03/05 06:21:26;;;;;;;39.03;25.83;;;6.50;99.90;;;;;;5136990;27;20223;-63
2024/03/05 06:23:53;;;;;;;33.65;22.52;;;6.50;99.90;;;;;;5136935;27;20203;-64
2024/03/05 06:26:20;;;;;;;37.53;23.13;;;6.50;99.90;;;;;;5137409;27;20207;-62
2024/03/05 06:28:46;;;;;;;34.65;24.30;;;6.50;99.90;;;;;;5136780;27;20195;-62
2024/03/05 06:31:15;;;;;;;39.90;26.02;;;6.50;99.90;;;;;;5136846;27;20279;-62
2024/03/05 06:33:42;;;;;;;34.10;24.05;;;6.40;99.90;;;;;;5137680;27;20757;-63
2024/03/05 06:36:11;;;;;;;34.65;25.05;;;6.40;99.90;;;;;;5135956;27;20290;-61
2024/03/05 06:38:38;;;;;;;30.92;22.95;;;6.40;99.90;;;;;;5138262;27;20237;-62
2024/03/05 06:41:05;;;;;;;34.88;24.23;;;6.40;99.90;;;;;;5137658;27;20202;-62
2024/03/05 06:43:36;;;;;;;38.00;24.20;;;6.40;99.90;;;;;;5136806;27;20195;-61
2024/03/05 06:46:03;;;;;;;39.40;25.27;;;6.40;99.90;;;;;;5137625;27;20188;-61
2024/03/05 06:48:32;;;;;;;37.03;24.92;;;6.40;99.90;;;;;;5137512;27;20195;-62
2024/03/05 06:51:01;;;;;;;40.05;24.20;;;6.40;99.90;;;;;;5137177;27;20247;-62
2024/03/05 06:58:58;;;;;;;36.15;25.17;;;6.30;99.90;;;;;;5137959;27;20692;-63
2024/03/05 07:01:27;;;;;;;40.05;25.75;;;6.40;99.90;;;;;;5137180;27;20223;-62
2024/03/05 07:03:56;;;;;;;36.10;25.35;;;6.40;99.90;;;;;;5136688;27;20202;-61
2024/03/05 07:06:23;;;;;;;40.78;26.05;;;6.40;99.90;;;;;;5136712;27;20198;-60
2024/03/05 07:08:51;;;;;;;39.08;25.60;;;6.40;99.90;;;;;;5136636;27;20202;-63
2024/03/05 07:11:18;;;;;;;34.22;23.85;;;6.30;99.90;;;;;;5137836;27;20211;-62
2024/03/05 07:13:47;;;;;;;36.00;25.67;;;6.30;99.90;;;;;;5148977;27;20227;-62
2024/03/05 07:16:15;;;;;;;37.20;23.92;;;6.40;99.90;;;;;;5144076;27;20191;-60
2024/03/05 07:18:42;;;;;;;39.45;25.63;;;6.30;99.90;;;;;;5137419;27;20209;-61
2024/03/05 07:21:11;;;;;;;39.67;24.77;;;6.30;99.90;;;;;;5136486;27;20199;-63
2024/03/05 07:23:39;;;;;;;36.72;25.30;;;6.30;99.90;;;;;;5136852;27;20199;-63
2024/03/05 07:26:06;;;;;;;39.67;25.10;;;6.30;99.90;;;;;;5136778;27;20202;-62
2024/03/05 07:28:33;;;;;;;37.47;24.88;;;6.30;99.90;;;;;;5137445;27;20201;-60
2024/03/05 07:31:00;;;;;;;38.72;26.10;;;6.30;99.90;;;;;;5137490;27;20210;-62
2024/03/05 07:33:28;;;;;;;35.75;25.65;;;6.30;99.90;;;;;;5135720;27;20696;-61
2024/03/05 07:35:55;;;;;;;37.42;25.90;;;6.30;99.90;;;;;;5136081;27;20202;-63
2024/03/05 07:38:23;;;;;;;40.83;27.13;;;6.30;99.90;;;;;;5135745;27;20207;-62
2024/03/05 07:40:50;;;;;;;33.47;23.65;;;6.30;99.90;;;;;;5135177;27;20217;-61
2024/03/05 07:43:18;;;;;;;37.28;27.58;;;6.30;99.90;;;;;;5135044;27;20625;-61
2024/03/05 07:45:44;;;;;;;37.65;26.08;;;6.30;99.90;;;;;;5136149;27;20207;-60
2024/03/05 07:48:11;;;;;;;41.53;27.73;;;6.30;99.90;;;;;;5138290;27;20202;-61
2024/03/05 07:50:39;;;;;;;38.35;28.08;;;6.30;99.90;;;;;;5137750;27;20195;-62
2024/03/05 07:53:05;;;;;;;39.63;24.83;;;6.30;99.90;;;;;;5139529;27;20586;-61
2024/03/05 07:55:37;;;;;;;37.30;26.10;;;6.30;99.90;;;;;;5136575;27;20207;-62
2024/03/05 07:58:06;;;;;;;34.03;26.92;;;6.20;99.90;;;;;;5137409;27;20183;-61
2024/03/05 08:00:33;;;;;;;37.65;26.15;;;6.20;99.90;;;;;;5136104;27;20259;-62
2024/03/05 08:03:00;;;;;;;36.13;25.92;;;6.20;99.90;;;;;;5135389;27;20263;-60
2024/03/05 08:05:28;;;;;;;38.65;25.88;;;6.20;99.90;;;;;;5135394;27;20199;-62
2024/03/05 08:07:57;;;;;;;37.92;27.05;;;6.10;99.90;;;;;;5134783;27;20629;-62
2024/03/05 08:10:24;;;;;;;38.60;26.67;;;6.10;99.90;;;;;;5137629;27;20199;-61
2024/03/05 08:12:55;;;;;;;41.05;28.20;;;6.10;99.90;;;;;;5140212;27;20234;-62
2024/03/05 08:15:24;;;;;;;38.60;25.42;;;6.10;99.90;;;;;;5143490;27;20594;-63
2024/03/05 08:17:51;;;;;;;38.25;24.77;;;6.10;99.90;;;;;;5137086;27;20191;-62
2024/03/05 08:20:19;;;;;;;35.83;27.23;;;6.10;99.90;;;;;;5135188;27;20555;-62
2024/03/05 08:22:47;;;;;;;45.53;28.15;;;6.10;99.90;;;;;;5134697;27;20211;-62
2024/03/05 08:25:15;;;;;;;39.45;27.30;;;6.10;99.90;;;;;;5134393;27;20217;-62
2024/03/05 08:27:43;;;;;;;39.83;28.13;;;6.10;99.90;;;;;;5134896;27;20202;-62
2024/03/05 08:30:15;;;;;;;45.25;28.08;;;6.10;99.90;;;;;;5134909;27;20222;-62
2024/03/05 08:32:42;;;;;;;41.90;27.90;;;6.10;99.90;;;;;;5134308;27;20222;-62
2024/03/05 08:35:11;;;;;;;35.28;25.67;;;6.10;99.90;;;;;;5134574;28;20248;-62
2024/03/05 08:37:38;;;;;;;38.03;26.33;;;6.10;99.90;;;;;;5135848;27;20291;-62
2024/03/05 08:40:09;;;;;;;40.08;26.60;;;6.10;99.90;;;;;;5134218;27;20672;-63
2024/03/05 08:42:36;;;;;;;40.78;25.35;;;6.10;99.90;;;;;;5134659;27;20219;-62
2024/03/05 08:45:04;;;;;;;34.83;24.63;;;6.10;99.90;;;;;;5134652;27;20632;-63
2024/03/05 08:47:33;;;;;;;43.15;26.15;;;6.10;99.90;;;;;;5134211;27;20202;-61
2024/03/05 08:50:00;;;;;;;35.17;25.25;;;6.10;99.90;;;;;;5134589;27;20571;-62
2024/03/05 08:52:26;;;;;;;36.50;25.23;;;6.10;99.90;;;;;;5135240;27;20216;-63
2024/03/05 08:54:52;;;;;;;36.22;25.30;;;6.10;99.90;;;;;;5135289;27;20195;-62
2024/03/05 08:57:19;;;;;;;35.23;25.73;;;6.10;99.90;;;;;;5134479;27;20205;-63
2024/03/05 08:59:46;;;;;;;39.05;26.08;;;6.10;99.90;;;;;;5137162;27;20199;-62
2024/03/05 09:02:13;;;;;;;39.92;27.75;;;6.10;99.90;;;;;;5138126;27;20249;-62
2024/03/05 09:04:41;;;;;;;41.28;27.35;;;6.10;99.90;;;;;;5138210;27;20231;-63
2024/03/05 09:07:09;;;;;;;39.83;26.60;;;6.20;99.90;;;;;;5137731;27;20205;-61
2024/03/05 09:09:35;;;;;;;35.47;27.08;;;6.20;99.90;;;;;;5137816;27;20254;-62
2024/03/05 09:12:02;;;;;;;35.63;25.60;;;6.20;99.90;;;;;;5137740;27;20231;-62
2024/03/05 09:14:29;;;;;;;35.28;26.58;;;6.20;99.90;;;;;;5137560;27;20219;-62
2024/03/05 09:16:56;;;;;;;34.70;25.63;;;6.30;99.90;;;;;;5137769;27;20235;-62
2024/03/05 09:19:23;;;;;;;35.60;26.27;;;6.30;99.90;;;;;;5138445;27;20210;-62
2024/03/05 09:21:51;;;;;;;36.75;25.67;;;6.30;99.90;;;;;;5138033;27;20215;-61
2024/03/05 09:24:18;;;;;;;35.20;25.45;;;6.30;99.90;;;;;;5138722;27;20206;-61
2024/03/05 09:26:46;;;;;;;37.72;26.50;;;6.40;99.90;;;;;;5138793;27;20205;-61
2024/03/05 09:29:13;;;;;;;36.40;25.00;;;6.30;99.90;;;;;;5138323;27;20271;-63
2024/03/05 09:31:40;;;;;;;37.08;25.48;;;6.30;99.90;;;;;;5137733;27;20276;-62
2024/03/05 09:34:07;;;;;;;39.65;25.50;;;6.40;99.90;;;;;;5137481;27;20218;-61
2024/03/05 09:36:34;;;;;;;34.53;23.40;;;6.30;99.90;;;;;;5137579;27;20199;-62
2024/03/05 09:39:07;;;;;;;33.38;25.50;;;6.30;99.90;;;;;;5137856;27;20203;-61
2024/03/05 09:41:40;;;;;;;43.22;25.15;;;6.40;99.90;;;;;;5137155;27;20222;-62
2024/03/05 09:44:07;;;;;;;34.08;25.08;;;6.30;99.90;;;;;;5137903;27;20274;-62
2024/03/05 09:46:36;;;;;;;34.95;25.02;;;6.40;99.90;;;;;;5137257;27;20252;-61
2024/03/05 09:49:04;;;;;;;37.13;24.73;;;6.30;99.90;;;;;;5138380;27;20672;-62
2024/03/05 09:51:33;;;;;;;32.10;22.80;;;6.40;99.90;;;;;;5138049;27;20249;-62
2024/03/05 09:53:59;;;;;;;40.00;25.33;;;6.40;99.90;;;;;;5138260;27;20214;-62
2024/03/05 09:56:28;;;;;;;36.60;25.70;;;6.50;99.90;;;;;;5137497;27;20191;-62
2024/03/05 09:58:54;;;;;;;29.80;24.25;;;6.50;99.90;;;;;;5137905;27;20316;-60
2024/03/05 10:01:21;;;;;;;35.78;24.95;;;6.50;99.90;;;;;;5137227;27;20219;-61
2024/03/05 10:03:49;;;;;;;36.25;23.95;;;6.60;99.90;;;;;;5136644;27;20194;-63
2024/03/05 10:06:16;;;;;;;31.67;22.42;;;6.60;99.90;;;;;;5136639;27;20199;-61
2024/03/05 10:08:43;;;;;;;32.22;22.85;;;6.60;99.90;;;;;;5137585;27;20206;-62
2024/03/05 10:11:09;;;;;;;33.22;23.95;;;6.60;99.90;;;;;;5137069;27;20205;-61
2024/03/05 10:13:38;;;;;;;31.45;23.85;;;6.70;99.90;;;;;;5140828;27;20215;-62
2024/03/05 10:16:14;;;;;;;37.45;24.73;;;6.70;99.90;;;;;;5140066;27;20195;-61
2024/03/05 10:18:41;;;;;;;30.33;22.60;;;6.70;99.90;;;;;;5138826;27;20187;-62
2024/03/05 10:21:17;;;;;;;30.48;23.02;;;6.70;99.90;;;;;;5137552;27;20215;-62
2024/03/05 10:23:44;;;;;;;31.40;23.02;;;6.80;99.90;;;;;;5137965;27;20545;-61
2024/03/05 10:26:24;;;;;;;35.45;23.55;;;6.80;99.90;;;;;;5136839;27;20198;-62
2024/03/05 10:28:52;;;;;;;33.30;23.52;;;6.80;99.90;;;;;;5136665;27;20224;-62
2024/03/05 10:31:23;;;;;;;38.95;26.15;;;6.80;99.90;;;;;;5137313;27;20286;-62
2024/03/05 10:33:53;;;;;;;29.23;22.20;;;6.80;99.90;;;;;;5138074;27;20211;-61
2024/03/05 10:36:30;;;;;;;33.15;23.38;;;6.80;99.90;;;;;;5136814;27;20646;-61
2024/03/05 10:38:57;;;;;;;34.58;23.80;;;6.80;99.90;;;;;;5137071;27;20187;-60
2024/03/05 10:41:24;;;;;;;29.17;21.25;;;6.80;99.90;;;;;;5136757;27;20223;-61
2024/03/05 10:43:53;;;;;;;30.27;21.20;;;6.80;99.90;;;;;;5139481;27;20217;-61
2024/03/05 10:46:21;;;;;;;31.77;23.90;;;6.70;99.90;;;;;;5138816;27;20210;-62
2024/03/05 10:48:50;;;;;;;33.28;21.23;;;6.70;99.90;;;;;;5137728;27;20203;-62
2024/03/05 10:51:20;;;;;;;28.80;20.20;;;6.70;99.90;;;;;;5136666;27;20209;-61
2024/03/05 10:53:49;;;;;;;31.45;20.52;;;6.70;99.90;;;;;;5149169;27;20221;-63
2024/03/05 10:56:16;;;;;;;30.08;21.20;;;6.70;99.90;;;;;;5149272;27;20611;-63
2024/03/05 11:01:36;;;;;;;30.35;21.13;;;6.60;99.90;;;;;;5115222;27;20694;-62
2024/03/05 11:04:08;;;;;;;30.83;22.17;;;6.60;99.90;;;;;;5135849;27;20656;-61
2024/03/05 11:06:38;;;;;;;29.67;20.88;;;6.60;99.90;;;;;;5137332;27;20183;-61
2024/03/05 11:09:07;;;;;;;30.58;22.40;;;6.60;99.90;;;;;;5138313;27;20202;-62
2024/03/05 11:11:35;;;;;;;32.47;21.23;;;6.60;99.90;;;;;;5137116;27;20226;-61
2024/03/05 11:14:04;;;;;;;35.70;23.02;;;6.60;99.90;;;;;;5138964;27;20389;-61
2024/03/05 11:16:34;;;;;;;34.05;22.77;;;6.50;99.90;;;;;;5139248;27;20331;-61
2024/03/05 11:19:05;;;;;;;31.02;22.00;;;6.50;99.90;;;;;;5137273;27;20203;-62
2024/03/05 11:21:36;;;;;;;32.50;21.42;;;6.50;99.90;;;;;;5136171;27;20276;-61
2024/03/05 11:24:04;;;;;;;25.50;18.65;;;6.50;99.90;;;;;;5135767;27;20182;-62
2024/03/05 11:26:32;;;;;;;36.33;21.77;;;6.60;99.90;;;;;;5135977;27;20225;-61
2024/03/05 11:29:05;;;;;;;28.90;21.08;;;6.60;99.90;;;;;;5136131;27;20208;-61
2024/03/05 11:31:34;;;;;;;26.85;20.50;;;6.50;99.90;;;;;;5136004;27;20287;-61
2024/03/05 11:34:17;;;;;;;37.03;20.35;;;6.60;99.90;;;;;;5136292;27;20634;-62
2024/03/05 11:36:44;;;;;;;29.33;21.38;;;6.60;99.90;;;;;;5136172;27;20199;-63
2024/03/05 11:39:14;;;;;;;35.65;21.55;;;6.60;99.90;;;;;;5135773;27;20195;-63
2024/03/05 11:41:43;;;;;;;34.22;22.23;;;6.60;99.90;;;;;;5136079;27;20769;-64
2024/03/05 11:44:12;;;;;;;32.15;20.30;;;6.70;99.90;;;;;;5136880;27;20210;-63
2024/03/05 11:46:48;;;;;;;26.15;18.92;;;6.60;99.90;;;;;;5136146;27;20195;-61
2024/03/05 11:49:16;;;;;;;29.05;19.92;;;6.70;99.90;;;;;;5136088;27;20199;-62
2024/03/05 11:51:44;;;;;;;27.15;19.80;;;6.70;99.90;;;;;;5136702;27;20218;-61
2024/03/05 11:54:13;;;;;;;25.80;17.77;;;6.70;99.90;;;;;;5136818;27;20215;-62
2024/03/05 11:56:42;;;;;;;26.45;18.83;;;6.70;99.90;;;;;;5136693;27;20641;-62
2024/03/05 11:59:09;;;;;;;32.75;19.38;;;6.70;99.90;;;;;;5136360;27;20677;-62
2024/03/05 12:01:36;;;;;;;27.92;19.13;;;6.70;99.90;;;;;;5136388;27;20219;-62
2024/03/05 12:04:07;;;;;;;27.90;20.63;;;6.70;99.90;;;;;;5136954;27;20194;-62
2024/03/05 12:06:34;;;;;;;25.77;19.85;;;6.70;99.90;;;;;;5137538;27;20254;-63
2024/03/05 12:09:18;;;;;;;26.25;19.42;;;6.70;99.90;;;;;;5137056;27;20202;-62
2024/03/05 12:12:02;;;;;;;27.48;20.08;;;6.70;99.90;;;;;;5135906;27;20235;-63
2024/03/05 12:14:30;;;;;;;29.45;19.13;;;6.70;99.90;;;;;;5134514;27;20225;-63
2024/03/05 12:16:59;;;;;;;24.63;17.77;;;6.80;99.90;;;;;;5135816;27;20199;-63
2024/03/05 12:19:27;;;;;;;26.10;19.83;;;6.80;99.90;;;;;;5136079;27;20202;-62
2024/03/05 12:21:54;;;;;;;27.33;19.58;;;6.80;99.90;;;;;;5135195;27;20215;-62
2024/03/05 12:24:22;;;;;;;29.65;19.25;;;6.80;99.90;;;;;;5136098;27;20198;-63
2024/03/05 12:26:49;;;;;;;25.45;18.90;;;6.80;99.90;;;;;;5135698;27;20537;-63
2024/03/05 12:29:26;;;;;;;26.80;18.73;;;6.80;99.90;;;;;;5136695;27;20199;-61
2024/03/05 12:31:53;;;;;;;27.17;20.65;;;6.70;99.90;;;;;;5137611;27;20230;-63
2024/03/05 12:34:20;;;;;;;27.10;20.05;;;6.70;99.90;;;;;;5143080;27;20591;-62
2024/03/05 12:36:48;;;;;;;29.88;19.85;;;6.60;99.90;;;;;;5142479;27;20221;-62
2024/03/05 12:39:18;;;;;;;24.60;19.52;;;6.60;99.90;;;;;;5139778;27;20206;-62
2024/03/05 12:41:45;;;;;;;26.70;19.48;;;6.50;99.90;;;;;;5140633;27;20215;-63
2024/03/05 12:44:22;;;;;;;25.90;21.02;;;6.50;99.90;;;;;;5141495;27;20199;-60
2024/03/05 12:46:49;;;;;;;25.70;19.60;;;6.40;99.90;;;;;;5143330;27;20187;-63
2024/03/05 12:49:16;;;;;;;34.90;20.77;;;6.40;99.90;;;;;;5141329;27;20202;-63
2024/03/05 12:51:43;;;;;;;31.30;20.13;;;6.40;99.90;;;;;;5141894;27;20225;-61